createdAt,value
2019-01-17T00:06:39.961Z,58.4
2019-01-17T00:23:27.446Z,58.4
2019-01-17T00:40:14.863Z,58.4
2019-01-17T00:57:02.215Z,58.0
2019-01-17T01:13:49.424Z,58.0
2019-01-17T01:30:36.560Z,58.0
2019-01-17T01:47:23.673Z,57.6
2019-01-17T02:04:10.954Z,57.2
2019-01-17T02:20:57.974Z,57.2
2019-01-17T02:37:45.202Z,57.2
2019-01-17T02:54:35.826Z,57.2
2019-01-17T03:11:19.372Z,56.8
2019-01-17T03:28:06.384Z,56.8
2019-01-17T03:44:53.311Z,56.8
2019-01-17T04:01:40.232Z,56.4
2019-01-17T04:18:26.931Z,56.4
2019-01-17T04:35:13.791Z,56.4
2019-01-17T04:52:00.584Z,56.0
2019-01-17T05:08:47.411Z,56.0
2019-01-17T05:25:34.162Z,56.0
2019-01-17T05:42:20.979Z,56.0
2019-01-17T05:59:07.742Z,55.6
2019-01-17T06:15:54.654Z,55.6
2019-01-17T06:32:41.383Z,55.6
2019-01-17T06:49:28.235Z,55.6
2019-01-17T07:06:14.871Z,54.8
2019-01-17T07:23:01.186Z,54.8
2019-01-17T07:39:47.799Z,54.8
2019-01-17T07:56:34.498Z,54.0
2019-01-17T08:13:21.084Z,54.8
2019-01-17T08:30:08.291Z,54.4
2019-01-17T08:46:55.283Z,54.4
2019-01-17T09:03:42.592Z,54.4
2019-01-17T09:20:30.076Z,54.4
2019-01-17T09:37:17.026Z,54.4
2019-01-17T09:54:04.297Z,54.4
2019-01-17T10:10:51.689Z,54.4
2019-01-17T10:27:39.039Z,54.4
2019-01-17T10:44:26.203Z,54.4
2019-01-17T11:01:13.586Z,54.4
2019-01-17T11:18:00.894Z,54.4
2019-01-17T11:34:48.686Z,54.4
2019-01-17T11:51:35.386Z,54.4
2019-01-17T12:08:22.731Z,54.4
2019-01-17T12:25:10.001Z,54.4
2019-01-17T12:41:57.252Z,54.4
2019-01-17T12:58:44.521Z,54.4
2019-01-17T13:15:31.750Z,54.4
2019-01-17T13:32:19.370Z,54.4
2019-01-17T13:49:07.070Z,54.4
2019-01-17T14:05:53.467Z,54.4
2019-01-17T14:22:40.494Z,54.4
2019-01-17T14:39:27.695Z,54.4
2019-01-17T21:05:42.557Z,55.6
2019-01-17T21:22:30.530Z,55.6
2019-01-17T21:39:16.878Z,56.0
2019-01-17T21:56:04.128Z,56.0
2019-01-17T22:12:51.317Z,56.4
2019-01-17T22:29:38.588Z,56.4
2019-01-17T22:46:25.865Z,56.4
2019-01-17T23:03:13.010Z,56.4
2019-01-17T23:20:00.222Z,56.4
2019-01-17T23:36:49.017Z,56.4
2019-01-17T23:53:34.322Z,56.4
